Latest Weather Observations for Ouse

IDT60801

Issued at 6:05 pm EST Saturday 30 August 2014 (issued every 30 minutes, with the page automatically refreshed every 10 minutes)

About weather observations | Map of weather stations | Latest weather observations for TAS | Other Formats
Station Details ID: 095048 Name: OUSE FIRE STATION Lat: -42.48 Lon: 146.71 Height: 90.0 m
Data from the previous 72 hours. | See also: Recent months at Ouse
Date/Time
EST
Temp
°C
App
Temp
°C
Dew
Point
Rel
Hum
%
Delta-T
°C
Wind Press
QNH
hPa
Press
MSL
hPa
Rain
since 9 am
mm
Dir
 
Spd
km/h
Gust
km/h
Spd
kts
Gust
kts
30/06:00pm 12.1 9.6 6.4 68 2.7 N 9 13 5 7 1021.7 1021.9 0.0
30/05:30pm 14.4 12.7 7.7 64 3.3 NNE 6 9 3 5 1021.5 1021.7 0.0
30/05:00pm 16.6 16.1 9.5 63 3.7 SSE 2 9 1 5 1021.6 1021.8 0.0
30/04:30pm 17.3 16.6 8.7 57 4.4 SE 2 6 1 3 1021.8 1022.0 0.0
30/04:00pm 17.4 15.9 8.5 56 4.6 S 6 9 3 5 1021.9 1022.1 0.0
30/03:30pm 18.1 16.5 8.7 54 4.9 SSW 7 11 4 6 1022.1 1022.3 0.0
30/03:00pm 17.8 16.2 8.9 56 4.6 S 7 9 4 5 1022.4 1022.6 0.0
30/02:30pm 17.0 15.4 8.7 58 4.3 SSE 7 11 4 6 1022.7 1022.9 0.0
30/02:00pm 16.5 14.5 8.7 60 4.0 SE 9 13 5 7 1023.3 1023.5 0.0
30/01:30pm 15.7 13.5 8.0 60 3.9 SSE 9 11 5 6 1023.8 1024.0 0.0
30/01:00pm 15.2 12.9 7.5 60 3.8 S 9 13 5 7 1024.3 1024.6 0.0
30/12:30pm 13.7 11.8 7.5 66 3.1 SSE 7 11 4 6 1024.9 1025.2 0.0
30/12:00pm 12.5 10.7 8.0 74 2.2 SSE 7 11 4 6 1025.6 1025.9 0.0
30/11:30am 10.9 9.0 6.8 76 1.9 S 6 9 3 5 1026.2 1026.5 0.0
30/11:00am 9.7 7.7 7.0 83 1.3 SSE 7 11 4 6 1026.8 1027.1 0.0
30/10:30am 7.6 5.3 5.7 88 0.9 SE 7 9 4 5 1027.5 1027.8 0.0
30/10:00am 5.5 3.0 4.8 95 0.3 SE 7 9 4 5 1028.2 1028.4 0.0
30/09:30am 4.1 1.5 4.1 100 0.0 SE 7 11 4 6 1028.8 1029.0 0.0
30/09:00am 2.7 0.0 2.7 100 0.0 SSE 6 7 3 4 1029.3 1029.5 0.0
30/08:30am 1.0 -0.8 1.0 100 0.0 CALM 0 0 0 0 1029.6 1029.8 0.0
30/08:00am -0.9 -3.0 -0.9 100 0.0 CALM 0 0 0 0 1029.7 1029.9 0.0
30/07:30am -1.3 -3.5 -1.3 100 0.0 CALM 0 0 0 0 1029.6 1029.8 0.0
30/07:00am -1.7 -3.9 -1.7 100 0.0 CALM 0 0 0 0 1029.4 1029.6 0.0
30/06:30am -1.3 -3.5 -1.3 100 0.0 CALM 0 0 0 0 1029.3 1029.5 0.0
30/06:00am -1.0 -3.1 -1.0 100 0.0 NNW 0 0 0 0 1029.2 1029.4 0.0
30/05:30am -1.0 -3.1 -1.0 100 0.0 CALM 0 6 0 3 1029.2 1029.4 0.0
30/05:00am -0.9 -3.0 -0.9 100 0.0 CALM 0 4 0 2 1029.2 1029.4 0.0
30/04:30am -0.6 -2.7 -0.6 100 0.0 CALM 0 0 0 0 1029.2 1029.4 0.0
30/04:00am -0.1 -2.1 -0.1 100 0.0 CALM 0 0 0 0 1029.2 1029.4 0.0
30/03:30am -0.1 -2.9 -0.1 100 0.0 NNW 4 7 2 4 1029.3 1029.5 0.0
30/03:00am 0.1 -2.2 0.1 100 0.0 N 2 7 1 4 1029.3 1029.5 0.0
30/02:30am 0.6 -1.3 0.6 100 0.0 CALM 0 0 0 0 1029.5 1029.7 0.0
30/02:00am 0.7 -1.2 0.7 100 0.0 CALM 0 0 0 0 1029.7 1029.9 0.0
30/01:30am 0.9 -0.9 0.9 100 0.0 CALM 0 0 0 0 1029.8 1030.0 0.0
30/01:00am 1.1 -1.1 1.1 100 0.0 NNW 2 7 1 4 1029.9 1030.1 0.0
30/12:30am 1.4 -1.5 1.3 99 0.0 NNW 6 7 3 4 1029.9 1030.1 0.0
30/12:00am 2.0 -0.8 2.0 100 0.0 N 6 7 3 4 1029.9 1030.1 0.0
 
Date/Time
EST
Temp
°C
App
Temp
°C
Dew
Point
Rel
Hum
%
Delta-T
°C
Wind Press
QNH
hPa
Press
MSL
hPa
Rain
since 9 am
mm
Dir
 
Spd
km/h
Gust
km/h
Spd
kts
Gust
kts
29/11:30pm 2.2 -0.6 2.1 99 0.0 N 6 7 3 4 1029.8 1030.0 0.0
29/11:00pm 2.2 -0.2 1.9 98 0.1 N 4 7 2 4 1029.7 1029.9 0.0
29/10:30pm 2.6 0.6 2.2 97 0.2 NNW 2 7 1 4 1029.8 1030.0 0.0
29/10:00pm 3.2 0.5 2.8 97 0.2 N 6 7 3 4 1029.8 1030.0 0.0
29/09:30pm 3.4 0.5 2.7 95 0.3 NNW 7 9 4 5 1029.8 1030.0 0.0
29/09:00pm 4.1 1.5 3.2 94 0.4 NNW 6 9 3 5 1029.7 1029.9 0.0
29/08:30pm 4.8 3.4 3.8 93 0.4 CALM 0 0 0 0 1029.4 1029.6 0.0
29/08:00pm 5.2 3.1 3.7 90 0.6 NNW 4 9 2 5 1029.3 1029.5 0.0
29/07:30pm 6.2 5.0 4.5 89 0.7 CALM 0 0 0 0 1029.1 1029.3 0.0
29/07:00pm 6.7 4.1 4.4 85 1.0 NNW 7 11 4 6 1028.9 1029.1 0.0
29/06:30pm 8.2 7.1 5.3 82 1.3 CALM 0 0 0 0 1028.7 1028.9 0.0
29/06:00pm 10.5 9.6 6.1 74 2.0 CALM 0 0 0 0 1028.4 1028.6 0.0
29/05:30pm 12.7 10.7 6.1 64 3.1 SSW 6 7 3 4 1028.1 1028.3 0.0
29/05:00pm 16.4 14.5 6.8 53 4.7 SSW 6 7 3 4 1028.1 1028.3 0.0
29/04:30pm 16.5 14.0 4.9 46 5.5 S 7 9 4 5 1027.8 1028.0 0.0
29/04:00pm 16.5 13.6 4.5 45 5.6 S 9 11 5 6 1027.8 1028.0 0.0
29/03:30pm 16.5 14.2 5.5 48 5.3 S 7 11 4 6 1027.7 1027.9 0.0
29/03:00pm 16.5 14.2 5.5 48 5.3 S 7 11 4 6 1027.8 1028.0 0.0
29/02:30pm 16.4 14.3 6.8 53 4.8 SSE 7 11 4 6 1027.9 1028.1 0.0
29/02:00pm 15.8 14.1 7.6 58 4.1 SE 6 9 3 5 1028.1 1028.3 0.0
29/01:30pm 15.4 13.8 8.6 64 3.5 SSE 7 9 4 5 1028.4 1028.6 0.0
29/01:00pm 15.2 13.4 7.2 59 3.9 S 6 9 3 5 1028.8 1029.0 0.0
29/12:30pm 14.7 13.0 7.5 62 3.6 SSW 6 9 3 5 1028.9 1029.1 0.0
29/12:00pm 13.5 12.2 7.5 67 2.9 SSE 4 7 2 4 1029.3 1029.5 0.0
29/11:30am 12.7 10.9 7.2 69 2.7 SSE 6 9 3 5 1029.8 1030.0 0.0
29/11:00am 11.9 10.5 7.2 73 2.3 S 4 9 2 5 1030.1 1030.3 0.0
29/10:30am 9.8 8.1 5.8 76 1.8 ESE 4 9 2 5 1030.2 1030.4 0.0
29/10:00am 7.9 5.4 5.0 82 1.3 ESE 7 9 4 5 1030.5 1030.7 0.0
29/09:30am 6.7 4.3 4.2 84 1.1 SE 6 9 3 5 1030.8 1031.0 0.0
29/09:00am 5.5 4.3 4.5 93 0.4 CALM 0 0 0 0 1030.8 1031.0 0.0
29/08:30am 4.2 2.9 4.2 100 0.0 CALM 0 0 0 0 1030.8 1031.0 0.0
29/08:00am 1.8 0.1 1.8 100 0.0 CALM 0 0 0 0 1030.6 1030.8 0.0
29/07:30am 0.2 -1.8 0.2 100 0.0 CALM 0 0 0 0 1030.3 1030.5 0.0
29/07:00am -0.5 -3.3 -0.5 100 0.0 N 4 6 2 3 1029.9 1030.1 0.0
29/06:30am -0.6 -2.7 -0.6 100 0.0 CALM 0 0 0 0 1029.6 1029.8 0.0
29/06:00am -0.3 -3.1 -0.3 100 0.0 N 4 7 2 4 1029.3 1029.5 0.0
29/05:30am 0.0 -2.0 0.0 100 0.0 CALM 0 0 0 0 1029.1 1029.3 0.0
29/05:00am 0.1 -1.9 0.1 100 0.0 CALM 0 0 0 0 1029.0 1029.2 0.0
29/04:30am 0.7 -1.2 0.7 100 0.0 CALM 0 0 0 0 1028.8 1029.0 0.0
29/04:00am 1.1 -0.7 1.1 100 0.0 CALM 0 0 0 0 1028.6 1028.8 0.0
29/03:30am 1.3 -0.5 1.3 100 0.0 CALM 0 0 0 0 1028.6 1028.8 0.0
29/03:00am 1.6 -0.1 1.6 100 0.0 CALM 0 0 0 0 1028.6 1028.8 0.0
29/02:30am 1.8 0.1 1.8 100 0.0 CALM 0 0 0 0 1028.6 1028.8 0.0
29/02:00am 2.0 -1.0 1.9 99 0.0 N 7 9 4 5 1028.5 1028.7 0.0
29/01:30am 2.5 -0.8 2.4 99 0.0 NNW 9 11 5 6 1028.5 1028.7 0.0
29/01:00am 3.0 0.7 3.0 100 0.0 ENE 4 7 2 4 1028.4 1028.6 0.0
29/12:30am 3.6 1.4 3.6 100 0.0 SSE 4 6 2 3 1028.4 1028.6 0.0
29/12:00am 3.9 2.2 3.8 99 0.0 W 2 6 1 3 1028.3 1028.5 0.0
 
Date/Time
EST
Temp
°C
App
Temp
°C
Dew
Point
Rel
Hum
%
Delta-T
°C
Wind Press
QNH
hPa
Press
MSL
hPa
Rain
since 9 am
mm
Dir
 
Spd
km/h
Gust
km/h
Spd
kts
Gust
kts
28/11:30pm 4.4 1.5 4.4 100 0.0 N 9 15 5 8 1028.1 1028.3 0.0
28/11:00pm 4.0 1.3 3.9 99 0.0 N 7 9 4 5 1028.2 1028.4 0.0
28/10:30pm 4.1 1.4 3.8 98 0.1 N 7 13 4 7 1028.1 1028.3 0.0
28/10:00pm 4.6 2.0 4.3 98 0.1 NNW 7 9 4 5 1028.0 1028.2 0.0
28/09:30pm 5.2 2.9 4.6 96 0.3 NNW 6 9 3 5 1027.8 1028.0 0.0
28/09:00pm 5.8 4.7 5.1 95 0.3 CALM 0 4 0 2 1027.7 1027.9 0.0
28/08:30pm 6.4 4.0 5.2 92 0.5 NNW 7 9 4 5 1027.4 1027.7 0.0
28/08:00pm 7.2 5.1 5.8 91 0.6 NNW 6 7 3 4 1027.2 1027.5 0.0
28/07:30pm 8.0 6.7 5.8 86 1.0 NNW 2 7 1 4 1026.8 1027.1 0.0
28/07:00pm 9.7 9.0 7.0 83 1.3 CALM 0 7 0 4 1026.8 1027.1 0.0
28/06:30pm 11.2 10.7 7.7 79 1.7 CALM 0 0 0 0 1026.7 1027.0 0.0
28/06:00pm 12.4 10.8 7.9 74 2.2 S 6 9 3 5 1026.4 1026.7 0.0
28/05:30pm 14.0 12.6 9.0 72 2.5 SSE 6 9 3 5 1026.1 1026.4 0.0
28/05:00pm 15.4 13.5 8.9 65 3.3 S 9 9 5 5 1025.9 1026.2 0.0
28/04:30pm 16.3 14.1 7.8 57 4.3 S 9 11 5 6 1025.6 1025.9 0.0
28/04:00pm 16.5 14.1 7.2 54 4.6 S 9 13 5 7 1025.6 1025.9 0.0
28/03:30pm 17.3 14.5 7.1 51 5.1 S 11 15 6 8 1025.6 1025.9 0.0
28/03:00pm 17.1 14.7 8.5 57 4.4 S 11 15 6 8 1025.7 1026.0 0.0
28/02:30pm 17.3 15.4 9.0 58 4.3 SSE 9 15 5 8 1025.9 1026.2 0.0
28/02:00pm 16.3 14.0 7.5 56 4.4 SE 9 13 5 7 1026.1 1026.4 0.0
28/01:30pm 16.0 13.8 8.0 59 4.0 SSE 9 13 5 7 1026.4 1026.7 0.0
28/01:00pm 16.0 13.8 7.7 58 4.1 S 9 13 5 7 1026.9 1027.2 0.0
28/12:30pm 15.1 13.6 9.0 67 3.1 S 7 11 4 6 1027.4 1027.7 0.0
28/12:00pm 13.8 12.3 8.4 70 2.7 SE 6 9 3 5 1028.0 1028.2 0.0
28/11:30am 12.0 9.9 6.5 69 2.6 SE 7 11 4 6 1028.5 1028.7 0.0
28/11:00am 11.2 9.2 7.1 76 2.0 SE 7 11 4 6 1028.7 1028.9 0.0
28/10:30am 10.9 9.1 7.0 77 1.9 ESE 6 9 3 5 1029.1 1029.3 0.0
28/10:00am 10.3 9.5 6.3 76 1.9 CALM 0 0 0 0 1029.3 1029.5 0.0
28/09:30am 9.6 8.7 6.1 79 1.6 CALM 0 6 0 3 1029.6 1029.8 0.0
28/09:00am 8.2 5.9 5.7 84 1.1 N 7 9 4 5 1029.6 1029.8 0.2
28/08:30am 7.0 5.0 6.3 95 0.3 N 6 9 3 5 1029.7 - 0.2
28/08:00am 5.7 4.3 5.7 100 0.0 N 2 7 1 4 1029.5 1029.7 0.2
28/07:30am 3.7 2.3 3.7 100 0.0 CALM 0 0 0 0 1029.3 - 0.2
28/07:00am 3.6 1.4 3.6 100 0.0 NNE 4 9 2 5 1029.2 1029.4 0.2
28/06:30am 4.0 1.5 4.0 100 0.0 NW 6 7 3 4 1028.8 - 0.2
28/06:00am 3.7 1.9 3.7 100 0.0 NW 2 7 1 4 1028.9 1029.1 0.2
28/05:30am 4.2 2.9 4.2 100 0.0 CALM 0 0 0 0 1028.8 - 0.2
28/05:00am 4.4 3.2 4.4 100 0.0 CALM 0 0 0 0 1028.7 1028.9 0.2
28/04:30am 4.8 3.6 4.8 100 0.0 CALM 0 0 0 0 1028.5 - 0.2
28/04:00am 5.1 3.9 4.8 98 0.1 CALM 0 0 0 0 1028.6 1028.8 0.2
28/03:30am 5.7 4.7 5.4 98 0.1 CALM 0 0 0 0 1028.4 - 0.2
28/03:00am 6.1 5.1 5.5 96 0.3 CALM 0 0 0 0 1028.3 1028.5 0.2
28/02:30am 7.0 6.2 6.4 96 0.3 CALM 0 0 0 0 1028.3 - 0.2
28/02:00am 7.6 5.6 6.9 95 0.3 S 7 9 4 5 1028.5 1028.7 0.2
28/01:30am 7.9 6.1 7.1 95 0.4 SE 6 9 3 5 1028.8 - 0.2
28/01:00am 7.8 5.9 6.9 94 0.4 NW 6 9 3 5 1028.8 1029.0 0.2
28/12:30am 7.9 6.4 7.0 94 0.4 NE 4 9 2 5 1028.7 - 0.2
28/12:00am 8.1 6.2 6.9 92 0.6 NW 6 7 3 4 1029.1 1029.3 0.2
 
Date/Time
EST
Temp
°C
App
Temp
°C
Dew
Point
Rel
Hum
%
Delta-T
°C
Wind Press
QNH
hPa
Press
MSL
hPa
Rain
since 9 am
mm
Dir
 
Spd
km/h
Gust
km/h
Spd
kts
Gust
kts
27/11:30pm 8.4 6.6 7.0 91 0.7 N 6 9 3 5 1028.9 - 0.2
27/11:00pm 8.7 6.9 7.0 89 0.8 NE 6 9 3 5 1028.8 1029.0 0.2
27/10:30pm 9.0 8.2 6.6 85 1.1 CALM 0 0 0 0 1028.6 - 0.2
27/10:00pm 10.0 8.2 7.1 82 1.4 NNW 6 9 3 5 1028.6 1028.8 0.2
27/09:30pm 10.7 8.8 7.4 80 1.6 NNE 7 11 4 6 1028.3 - 0.2
27/09:00pm 10.6 8.4 8.0 84 1.3 N 9 13 5 7 1028.1 1028.3 0.2
27/08:30pm 10.0 7.9 8.3 89 0.8 N 9 13 5 7 1027.7 - 0.2
27/08:00pm 10.5 8.3 9.3 92 0.6 N 11 13 6 7 1027.4 1027.7 0.2
27/07:30pm 9.0 7.1 7.6 91 0.7 NW 7 11 4 6 1027.1 - 0.2
27/07:00pm 9.2 7.8 7.3 88 0.9 N 4 7 2 4 1026.9 1027.2 0.2
27/06:30pm 10.4 9.1 7.5 82 1.4 W 4 9 2 5 1026.4 - 0.2

Other Formats:

Comma delimited format used in spreadsheet applications
http://www.bom.gov.au/fwo/IDT60801/IDT60801.94957.axf

JavaScript Object Notation format (JSON) in row-major order
http://www.bom.gov.au/fwo/IDT60801/IDT60801.94957.json